CheckWX is a tool to help pilots better visualize weather data.  It is not intended as a substitute for an official pre-flight weather briefing.

20:35:31 UTC

EGAA METAR
Belfast International Airport
Belfast, United Kingdom
Current

16 mins ago

EGAA 162020Z 17004KT 130V190 9999 FEW045 18/14 Q1015
Observed
Jul-16 @ 20:20 UTC
Wind
  • 170° at 4 KTS
Visibility
10,000+ meters
Flight Rules
VFR
Cloud Levels
  • Few at 4,500' AGL
Temperature
18°C / 64°F
Dewpoint
14°C / 57°F
Humidity
78%
Altimeter
29.97" Hg
Pressure
1014.92 hPa
Previous

46 mins ago

EGAA 161950Z 17005KT 9999 FEW048 19/14 Q1015
Observed
Jul-16 @ 19:50 UTC
Wind
  • 170° at 5 KTS
Visibility
10,000+ meters
Flight Rules
VFR
Cloud Levels
  • Few at 4,800' AGL
Temperature
19°C / 66°F
Dewpoint
14°C / 57°F
Humidity
73%
Altimeter
29.97" Hg
Pressure
1014.92 hPa
Previous

1 hour ago

EGAA 161920Z 17006KT 120V190 9999 FEW036 19/14 Q1015
Observed
Jul-16 @ 19:20 UTC
Wind
  • 170° at 6 KTS
Visibility
10,000+ meters
Flight Rules
VFR
Cloud Levels
  • Few at 3,600' AGL
Temperature
19°C / 66°F
Dewpoint
14°C / 57°F
Humidity
73%
Altimeter
29.97" Hg
Pressure
1014.92 hPa